createdAt,value
2017-06-05T00:00:43.804Z,23.31
2017-06-05T00:01:54.083Z,23.28
2017-06-05T00:03:04.352Z,23.27
2017-06-05T00:04:14.623Z,23.28
2017-06-05T00:05:24.897Z,23.28
2017-06-05T00:06:34.538Z,23.2
2017-06-05T00:07:44.808Z,23.32
2017-06-05T00:08:54.455Z,23.32
2017-06-05T00:10:04.083Z,23.33
2017-06-05T00:11:14.037Z,23.25
2017-06-05T00:12:23.993Z,23.25
2017-06-05T00:13:34.272Z,23.25
2017-06-05T00:14:44.226Z,23.23
2017-06-05T00:15:54.210Z,23.28
2017-06-05T00:17:04.164Z,23.25
2017-06-05T00:18:14.426Z,23.27
2017-06-05T00:19:24.697Z,23.25
2017-06-05T00:20:34.962Z,23.22
2017-06-05T00:21:44.601Z,23.17
2017-06-05T00:22:54.559Z,23.28
2017-06-05T00:24:04.839Z,23.23
2017-06-05T00:25:14.798Z,23.33
2017-06-05T00:26:25.063Z,23.22
2017-06-05T00:27:35.342Z,23.27
2017-06-05T00:28:45.609Z,23.32
2017-06-05T00:29:55.879Z,23.25
2017-06-05T00:31:06.140Z,23.27
2017-06-05T00:32:16.093Z,23.31
2017-06-05T00:33:26.046Z,23.17
2017-06-05T00:34:36.336Z,23.17
2017-06-05T00:35:45.664Z,23.2
2017-06-05T00:36:55.623Z,23.27
2017-06-05T00:38:05.920Z,23.28
2017-06-05T00:39:15.559Z,23.25
2017-06-05T00:40:25.830Z,23.27
2017-06-05T00:41:36.101Z,23.23
2017-06-05T00:42:45.741Z,23.17
2017-06-05T00:43:55.078Z,23.27
2017-06-05T00:45:05.033Z,23.22
2017-06-05T00:46:14.990Z,23.22
2017-06-05T00:47:25.263Z,23.2
2017-06-05T00:48:35.217Z,23.19
2017-06-05T00:49:45.515Z,23.25
2017-06-05T00:50:55.472Z,23.15
2017-06-05T00:52:05.425Z,23.2
2017-06-05T00:53:15.380Z,23.13
2017-06-05T00:54:25.340Z,23.16
2017-06-05T00:55:35.288Z,23.16
2017-06-05T00:56:45.241Z,23.2
2017-06-05T00:57:55.210Z,23.27
2017-06-05T00:59:05.486Z,23.16
2017-06-05T01:00:15.440Z,23.27
2017-06-05T01:01:25.707Z,23.28
2017-06-05T01:02:35.975Z,23.25
2017-06-05T01:03:45.933Z,23.2
2017-06-05T01:04:56.202Z,23.27
2017-06-05T01:06:06.477Z,23.15
2017-06-05T01:07:16.746Z,23.23
2017-06-05T01:08:27.017Z,23.22
2017-06-05T01:09:37.284Z,23.19
2017-06-05T01:10:47.551Z,23.22
2017-06-05T01:11:57.189Z,23.22
2017-06-05T01:13:07.456Z,23.05
2017-06-05T01:14:17.412Z,23.15
2017-06-05T01:15:27.364Z,23.15
2017-06-05T01:16:37.323Z,23.13
2017-06-05T01:17:47.279Z,23.22
2017-06-05T01:18:57.550Z,23.17
2017-06-05T01:20:07.508Z,23.22
2017-06-05T01:21:17.147Z,23.12
2017-06-05T01:22:27.100Z,23.23
2017-06-05T01:23:37.366Z,23.1
2017-06-05T01:24:47.631Z,23.16
2017-06-05T01:25:57.899Z,23.09
2017-06-05T01:27:07.856Z,23.15
2017-06-05T01:28:18.125Z,23.22
2017-06-05T01:29:28.394Z,23.16
2017-06-05T01:30:38.344Z,23.19
2017-06-05T01:31:47.977Z,23.12
2017-06-05T01:32:58.245Z,23.13
2017-06-05T01:34:08.192Z,23.15
2017-06-05T01:35:18.144Z,23.13
2017-06-05T01:36:27.789Z,23.25
2017-06-05T01:37:37.430Z,23.2
2017-06-05T01:38:47.392Z,23.15
2017-06-05T01:39:57.346Z,23.12
2017-06-05T01:41:06.992Z,23.13
2017-06-05T01:42:17.261Z,23.12
2017-06-05T01:43:27.219Z,23.17
2017-06-05T01:44:37.220Z,23.25
2017-06-05T01:45:47.483Z,23.13
2017-06-05T01:46:57.759Z,23.17
2017-06-05T01:48:07.406Z,23.15
2017-06-05T01:49:17.097Z,23.25
2017-06-05T01:50:27.060Z,23.12
2017-06-05T01:51:37.031Z,23.05
2017-06-05T01:52:46.982Z,23.15
2017-06-05T01:53:57.265Z,23.22
2017-06-05T01:55:07.534Z,23.13
2017-06-05T01:56:17.798Z,23.15
2017-06-05T01:57:28.069Z,23.09
2017-06-05T01:58:37.753Z,23.1
2017-06-05T01:59:47.712Z,23.17
2017-06-05T02:00:57.672Z,23.17
2017-06-05T02:02:07.950Z,23.1
2017-06-05T02:03:17.906Z,23.17
2017-06-05T02:04:27.873Z,23.1
2017-06-05T02:05:37.827Z,23.23
2017-06-05T02:06:47.782Z,23.2
2017-06-05T02:07:58.057Z,23.13
2017-06-05T02:09:08.006Z,23.12
2017-06-05T02:10:18.274Z,23.16
2017-06-05T02:11:28.227Z,23.13
2017-06-05T02:12:38.492Z,23.05
2017-06-05T02:13:48.446Z,23.17
2017-06-05T02:14:58.718Z,23.17
2017-06-05T02:16:08.361Z,23.12
2017-06-05T02:17:18.673Z,23.02
2017-06-05T02:18:28.632Z,23.05
2017-06-05T02:19:38.592Z,23.1
2017-06-05T02:20:48.548Z,23.13
2017-06-05T02:21:58.510Z,23.07
2017-06-05T02:23:08.775Z,23.16
2017-06-05T02:24:18.743Z,23.17
2017-06-05T02:25:28.383Z,23.02
2017-06-05T02:26:38.661Z,23.16
2017-06-05T02:27:48.933Z,23.04
2017-06-05T02:28:58.577Z,23.13
2017-06-05T02:30:08.215Z,23.12
2017-06-05T02:31:18.173Z,23.1
2017-06-05T02:32:28.134Z,23.15
2017-06-05T02:33:38.086Z,23.13
2017-06-05T02:34:48.353Z,23.1
2017-06-05T02:35:58.300Z,23.1
2017-06-05T02:37:08.255Z,23.13
2017-06-05T02:38:18.214Z,23.16
2017-06-05T02:39:28.167Z,23.12
2017-06-05T02:40:38.435Z,23.13
2017-06-05T02:41:48.704Z,23.12
2017-06-05T02:42:58.662Z,23.17
2017-06-05T02:44:08.624Z,23.13
2017-06-05T02:45:18.595Z,23.12
2017-06-05T02:46:28.885Z,23.19
2017-06-05T02:47:39.165Z,23.13
2017-06-05T02:48:49.136Z,23.12
2017-06-05T02:49:59.093Z,23.07
2017-06-05T02:51:08.761Z,23.15
2017-06-05T02:52:18.401Z,23.12
2017-06-05T02:53:28.672Z,23.13
2017-06-05T02:54:38.312Z,23.13
2017-06-05T02:55:48.577Z,23.15
2017-06-05T02:56:58.532Z,23.13
2017-06-05T02:58:08.803Z,23.16
2017-06-05T02:59:19.089Z,23.22
2017-06-05T03:00:29.364Z,23.27
2017-06-05T03:01:39.627Z,23.25
2017-06-05T03:02:49.574Z,23.07
2017-06-05T03:03:59.843Z,23.01
2017-06-05T03:05:09.802Z,22.95
2017-06-05T03:06:19.446Z,23.04
2017-06-05T03:07:29.721Z,23.05
2017-06-05T03:08:39.997Z,23.05
2017-06-05T03:09:50.274Z,23.15
2017-06-05T03:11:00.552Z,23.19
2017-06-05T03:12:10.813Z,23.16
2017-06-05T03:13:20.804Z,23.17
2017-06-05T03:14:30.766Z,23.05
2017-06-05T03:15:41.026Z,23.09
2017-06-05T03:16:50.658Z,23.15
2017-06-05T03:18:00.932Z,23.13
2017-06-05T03:19:10.880Z,23.15
2017-06-05T03:20:20.833Z,23.16
2017-06-05T03:21:30.157Z,23.15
2017-06-05T03:22:40.113Z,23.19
2017-06-05T03:23:50.072Z,23.07
2017-06-05T03:25:00.027Z,23.17
2017-06-05T03:26:09.980Z,23.12
2017-06-05T03:27:20.251Z,23.12
2017-06-05T03:28:30.549Z,23.19
2017-06-05T03:29:40.185Z,23.2
2017-06-05T03:30:50.474Z,23.22
2017-06-05T03:32:00.423Z,23.2
2017-06-05T03:33:10.066Z,23.17
2017-06-05T03:34:20.374Z,23.17
2017-06-05T03:35:30.641Z,23.12
2017-06-05T03:36:40.589Z,23.17
2017-06-05T03:37:50.855Z,23.22
2017-06-05T03:39:00.495Z,23.01
2017-06-05T03:40:10.784Z,23.19
2017-06-05T03:41:21.054Z,23.16
2017-06-05T03:42:31.009Z,23.2
2017-06-05T03:43:40.961Z,23.12
2017-06-05T03:44:50.914Z,23.1
2017-06-05T03:46:00.868Z,23.19
2017-06-05T03:47:11.138Z,23.19
2017-06-05T03:48:20.779Z,23.16
2017-06-05T03:49:30.744Z,23.1
2017-06-05T03:50:41.014Z,23.1
2017-06-05T03:51:51.294Z,23.1
2017-06-05T03:53:01.568Z,23.17
2017-06-05T03:54:11.518Z,23.2
2017-06-05T03:55:21.466Z,23.22
2017-06-05T03:56:31.427Z,23.2
2017-06-05T03:57:41.384Z,23.17
2017-06-05T03:58:51.339Z,23.1
2017-06-05T04:00:01.615Z,23.13
2017-06-05T04:01:11.570Z,23.17
2017-06-05T04:02:21.841Z,23.17
2017-06-05T04:03:31.797Z,23.17
2017-06-05T04:04:41.758Z,23.22
2017-06-05T04:05:51.704Z,23.15
2017-06-05T04:07:01.970Z,23.13
2017-06-05T04:08:11.914Z,23.15
2017-06-05T04:09:22.188Z,23.17
2017-06-05T04:10:32.465Z,23.15
2017-06-05T04:11:42.417Z,23.19
2017-06-05T04:12:52.061Z,23.12
2017-06-05T04:14:02.337Z,23.12
2017-06-05T04:15:11.974Z,23.13
2017-06-05T04:16:21.934Z,23.13
2017-06-05T04:17:31.894Z,23.13
2017-06-05T04:18:41.530Z,23.13
2017-06-05T04:19:51.821Z,23.1
2017-06-05T04:21:01.474Z,23.12
2017-06-05T04:22:11.738Z,23.1
2017-06-05T04:23:22.011Z,23.05
2017-06-05T04:24:32.282Z,23.22
2017-06-05T04:25:42.241Z,23.1
2017-06-05T04:26:51.884Z,23.15
2017-06-05T04:28:01.844Z,23.19
2017-06-05T04:29:11.796Z,23.1
2017-06-05T04:30:21.117Z,23.07
2017-06-05T04:31:31.065Z,23.2
2017-06-05T04:32:41.334Z,23.12
2017-06-05T04:33:51.293Z,23.13
2017-06-05T04:35:01.551Z,23.15
2017-06-05T04:36:11.206Z,23.13
2017-06-05T04:37:20.846Z,23.17
2017-06-05T04:38:31.113Z,23.12
2017-06-05T04:39:41.383Z,23.2
2017-06-05T04:40:51.653Z,23.09
2017-06-05T04:42:01.284Z,23.2
2017-06-05T04:43:10.916Z,23.13
2017-06-05T04:44:20.864Z,23.2
2017-06-05T04:45:30.821Z,23.15
2017-06-05T04:46:40.770Z,23.16
2017-06-05T04:47:51.037Z,23.25
2017-06-05T04:49:00.990Z,23.27
2017-06-05T04:50:10.629Z,23.25
2017-06-05T04:51:20.577Z,23.1
2017-06-05T04:52:30.221Z,23.15
2017-06-05T04:53:40.173Z,23.12
2017-06-05T04:54:50.127Z,23.09
2017-06-05T04:56:00.079Z,23.19
2017-06-05T04:57:10.356Z,23.17
2017-06-05T04:58:20.623Z,23.2
2017-06-05T04:59:30.889Z,23.13
2017-06-05T05:00:40.842Z,23.2
2017-06-05T05:01:50.789Z,23.13
2017-06-05T05:03:00.422Z,23.17
2017-06-05T05:04:10.372Z,23.17
2017-06-05T05:05:20.329Z,23.17
2017-06-05T05:06:30.590Z,23.2
2017-06-05T05:07:40.536Z,23.17
2017-06-05T05:08:50.496Z,23.1
2017-06-05T05:10:00.449Z,23.09
2017-06-05T05:11:09.773Z,23.2
2017-06-05T05:12:20.064Z,23.2
2017-06-05T05:13:29.698Z,23.19
2017-06-05T05:14:39.658Z,23.13
2017-06-05T05:15:49.297Z,23.16
2017-06-05T05:16:59.567Z,23.17
2017-06-05T05:18:09.521Z,23.12
2017-06-05T05:19:19.796Z,23.2
2017-06-05T05:20:29.436Z,23.17
2017-06-05T05:21:39.394Z,23.23
2017-06-05T05:22:49.666Z,23.17
2017-06-05T05:23:59.305Z,23.13
2017-06-05T05:25:09.577Z,23.17
2017-06-05T05:26:19.525Z,23.2
2017-06-05T05:27:29.160Z,23.2
2017-06-05T05:28:39.151Z,23.1
2017-06-05T05:29:48.797Z,23.22
2017-06-05T05:30:58.753Z,23.1
2017-06-05T05:32:08.706Z,23.17
2017-06-05T05:33:18.343Z,23.15
2017-06-05T05:34:27.990Z,23.15
2017-06-05T05:35:38.263Z,23.13
2017-06-05T05:36:48.224Z,23.15
2017-06-05T05:37:58.497Z,23.16
2017-06-05T05:39:08.451Z,23.15
2017-06-05T05:40:18.417Z,23.15
2017-06-05T05:41:28.056Z,23.13
2017-06-05T05:42:38.320Z,23.22
2017-06-05T05:43:48.277Z,23.13
2017-06-05T05:44:58.545Z,23.17
2017-06-05T05:46:07.863Z,23.16
2017-06-05T05:47:17.821Z,23.1
2017-06-05T05:48:27.801Z,23.15
2017-06-05T05:49:37.129Z,23.12
2017-06-05T05:50:47.081Z,23.17
2017-06-05T05:51:56.717Z,23.19
2017-06-05T05:53:06.988Z,23.12
2017-06-05T05:54:17.251Z,23.13
2017-06-05T05:55:27.531Z,23.2
2017-06-05T05:56:37.482Z,23.1
2017-06-05T05:57:47.753Z,23.1
2017-06-05T05:58:57.708Z,23.17
2017-06-05T06:00:07.353Z,23.16
2017-06-05T06:01:17.310Z,23.16
2017-06-05T06:02:27.591Z,23.09
2017-06-05T06:03:37.226Z,23.17
2017-06-05T06:04:47.172Z,23.13
2017-06-05T06:05:57.132Z,23.22
2017-06-05T06:07:06.454Z,23.09
2017-06-05T06:08:16.413Z,23.15
2017-06-05T06:09:26.052Z,23.2
2017-06-05T06:10:36.332Z,23.13
2017-06-05T06:11:45.969Z,23.17
2017-06-05T06:12:55.924Z,23.27
2017-06-05T06:14:06.184Z,23.31
2017-06-05T06:15:15.825Z,23.27
2017-06-05T06:16:25.778Z,23.23
2017-06-05T06:17:36.044Z,23.32
2017-06-05T06:18:45.709Z,23.28
2017-06-05T06:19:55.677Z,23.33
2017-06-05T06:21:05.637Z,23.28
2017-06-05T06:22:14.963Z,23.35
2017-06-05T06:23:25.240Z,23.31
2017-06-05T06:24:35.201Z,23.33
2017-06-05T06:25:45.469Z,23.32
2017-06-05T06:26:55.750Z,23.35
2017-06-05T06:28:06.024Z,23.35
2017-06-05T06:29:15.660Z,23.32
2017-06-05T06:30:25.609Z,23.35
2017-06-05T06:31:35.879Z,23.38
2017-06-05T06:32:45.535Z,23.36
2017-06-05T06:33:54.576Z,23.38
2017-06-05T06:35:04.532Z,23.39
2017-06-05T06:36:14.477Z,23.35
2017-06-05T06:37:24.430Z,23.36
2017-06-05T06:38:34.381Z,23.27
2017-06-05T06:39:44.018Z,22.92
2017-06-05T06:40:53.983Z,22.79
2017-06-05T06:42:04.250Z,22.58
2017-06-05T06:43:14.205Z,22.46
2017-06-05T06:44:24.158Z,22.45
2017-06-05T06:45:33.799Z,22.55
2017-06-05T06:46:43.751Z,22.49
2017-06-05T06:47:54.023Z,22.46
2017-06-05T06:49:03.975Z,22.43
2017-06-05T06:50:12.979Z,22.25
2017-06-05T06:51:22.940Z,22.21
2017-06-05T06:52:32.894Z,22.1
2017-06-05T06:53:43.172Z,22.05
2017-06-05T06:54:52.190Z,22.05
2017-06-05T06:56:02.462Z,22.1
2017-06-05T06:57:12.416Z,22.07
2017-06-05T06:58:22.683Z,22.02
2017-06-05T06:59:32.642Z,21.92
2017-06-05T07:00:42.593Z,21.98
2017-06-05T07:01:52.233Z,21.99
2017-06-05T07:03:02.511Z,22.03
2017-06-05T07:04:12.462Z,22.05
2017-06-05T07:05:22.733Z,22.03
2017-06-05T07:06:32.373Z,22.06
2017-06-05T07:07:42.009Z,22.1
2017-06-05T07:08:51.961Z,22.1
2017-06-05T07:10:02.232Z,22.17
2017-06-05T07:11:12.498Z,22.31
2017-06-05T07:12:22.768Z,22.36
2017-06-05T07:13:32.432Z,22.51
2017-06-05T07:14:42.422Z,22.65
2017-06-05T07:15:52.692Z,22.65
2017-06-05T07:17:02.955Z,22.76
2017-06-05T07:18:13.224Z,22.79
2017-06-05T07:19:22.865Z,22.9
2017-06-05T07:20:32.822Z,22.92
2017-06-05T07:21:43.087Z,22.95
2017-06-05T07:22:53.358Z,22.98
2017-06-05T07:24:02.999Z,23.02
2017-06-05T07:25:12.957Z,23.02
2017-06-05T07:26:22.941Z,23.07
2017-06-05T07:27:32.581Z,23.13
2017-06-05T07:28:42.846Z,23.15
2017-06-05T07:29:53.111Z,23.1
2017-06-05T07:31:03.387Z,23.13
2017-06-05T07:32:13.022Z,23.12
2017-06-05T07:33:22.981Z,23.12
2017-06-05T07:34:32.948Z,23.19
2017-06-05T07:35:43.213Z,23.16
2017-06-05T07:36:52.266Z,23.23
2017-06-05T07:38:02.540Z,23.2
2017-06-05T07:39:12.489Z,23.35
2017-06-05T07:40:22.445Z,23.25
2017-06-05T07:41:32.399Z,23.16
2017-06-05T07:42:42.356Z,23.28
2017-06-05T07:43:52.302Z,23.25
2017-06-05T07:45:02.261Z,23.32
2017-06-05T07:46:12.526Z,23.2
2017-06-05T07:47:22.479Z,23.27
2017-06-05T07:48:32.746Z,23.33
2017-06-05T07:49:42.387Z,23.27
2017-06-05T07:50:52.656Z,23.36
2017-06-05T07:52:02.925Z,23.39
2017-06-05T07:53:12.560Z,23.32
2017-06-05T07:54:22.512Z,23.35
2017-06-05T07:55:32.468Z,23.35
2017-06-05T07:56:42.769Z,23.35
2017-06-05T07:57:53.034Z,23.33
2017-06-05T07:59:03.062Z,23.43
2017-06-05T08:00:13.324Z,23.32
2017-06-05T08:01:23.280Z,23.39
2017-06-05T08:02:33.552Z,23.36
2017-06-05T08:03:43.817Z,23.4
2017-06-05T08:04:53.464Z,23.38
2017-06-05T08:06:03.724Z,23.42
2017-06-05T08:07:13.358Z,23.47
2017-06-05T08:08:23.311Z,23.42
2017-06-05T08:09:32.950Z,23.42
2017-06-05T08:10:42.902Z,23.4
2017-06-05T08:11:52.541Z,23.42
2017-06-05T08:13:02.810Z,23.46
2017-06-05T08:14:13.078Z,23.47
2017-06-05T08:15:23.346Z,23.42
2017-06-05T08:16:33.617Z,23.46
2017-06-05T08:17:43.253Z,23.47
2017-06-05T08:18:53.505Z,23.43
2017-06-05T08:20:03.456Z,23.47
2017-06-05T08:21:13.101Z,23.4
2017-06-05T08:22:23.359Z,23.48
2017-06-05T08:23:33.311Z,23.53
2017-06-05T08:24:43.261Z,23.48
2017-06-05T08:25:53.530Z,23.51
2017-06-05T08:27:03.796Z,23.5
2017-06-05T08:28:13.133Z,23.51
2017-06-05T08:29:23.088Z,23.53
2017-06-05T08:30:33.046Z,23.54
2017-06-05T08:31:42.997Z,23.55
2017-06-05T08:32:52.638Z,23.51
2017-06-05T08:34:02.591Z,23.55
2017-06-05T08:35:12.864Z,23.55
2017-06-05T08:36:22.813Z,23.54
2017-06-05T08:37:32.769Z,23.6
2017-06-05T08:38:43.044Z,23.5
2017-06-05T08:39:52.991Z,23.53
2017-06-05T08:41:02.628Z,23.55
2017-06-05T08:42:12.267Z,23.57
2017-06-05T08:43:22.543Z,23.63
2017-06-05T08:44:32.507Z,23.66
2017-06-05T08:45:42.464Z,23.6
2017-06-05T08:46:52.424Z,23.6
2017-06-05T08:48:02.376Z,23.53
2017-06-05T08:49:12.641Z,23.57
2017-06-05T08:50:22.593Z,23.47
2017-06-05T08:51:32.859Z,23.53
2017-06-05T08:52:42.810Z,23.53
2017-06-05T08:53:52.438Z,23.54
2017-06-05T08:55:02.431Z,23.48
2017-06-05T08:56:12.704Z,23.54
2017-06-05T08:57:22.658Z,23.5
2017-06-05T08:58:31.985Z,23.55
2017-06-05T08:59:41.935Z,23.57
2017-06-05T09:00:51.888Z,23.55
2017-06-05T09:02:01.841Z,23.46
2017-06-05T09:03:12.121Z,23.32
2017-06-05T09:04:22.076Z,23.32
2017-06-05T09:05:32.034Z,23.36
2017-06-05T09:06:41.992Z,23.32
2017-06-05T09:07:51.948Z,23.22
2017-06-05T09:09:02.212Z,23.32
2017-06-05T09:10:12.480Z,23.12
2017-06-05T09:11:22.120Z,23.16
2017-06-05T09:12:32.073Z,23.15
2017-06-05T09:13:41.709Z,23.22
2017-06-05T09:14:51.660Z,23.23
2017-06-05T09:16:01.922Z,23.22
2017-06-05T09:17:11.908Z,23.15
2017-06-05T09:18:22.183Z,23.23
2017-06-05T09:19:32.134Z,23.27
2017-06-05T09:20:42.088Z,23.22
2017-06-05T09:21:52.040Z,23.4
2017-06-05T09:23:01.672Z,23.27
2017-06-05T09:24:11.936Z,23.27
2017-06-05T09:25:22.203Z,23.23
2017-06-05T09:26:32.479Z,23.28
2017-06-05T09:27:42.426Z,23.32
2017-06-05T09:28:52.394Z,23.33
2017-06-05T09:30:02.340Z,23.43
2017-06-05T09:31:12.606Z,23.39
2017-06-05T09:32:22.557Z,23.33
2017-06-05T09:33:32.511Z,23.31
2017-06-05T09:34:42.776Z,23.28
2017-06-05T09:35:52.731Z,23.31
2017-06-05T09:37:02.375Z,23.31
2017-06-05T09:38:12.316Z,23.38
2017-06-05T09:39:21.633Z,23.42
2017-06-05T09:40:31.582Z,23.28
2017-06-05T09:41:41.536Z,23.28
2017-06-05T09:42:51.491Z,23.19
2017-06-05T09:44:01.756Z,23.13
2017-06-05T09:45:11.389Z,23.12
2017-06-05T09:46:21.667Z,23.25
2017-06-05T09:47:31.308Z,23.22
2017-06-05T09:48:41.574Z,23.31
2017-06-05T09:49:51.211Z,23.22
2017-06-05T09:51:01.163Z,23.32
2017-06-05T09:52:11.114Z,23.32
2017-06-05T09:53:20.752Z,23.39
2017-06-05T09:54:31.014Z,23.39
2017-06-05T09:55:41.275Z,23.38
2017-06-05T09:56:51.537Z,23.36
2017-06-05T09:58:01.857Z,23.43
2017-06-05T09:59:12.200Z,23.39
2017-06-05T10:00:23.330Z,23.43
2017-06-05T10:01:34.407Z,23.47
2017-06-05T10:02:45.492Z,23.36
2017-06-05T10:03:56.582Z,23.43
2017-06-05T10:05:07.304Z,23.42
2017-06-05T10:06:18.081Z,23.47
2017-06-05T10:07:29.167Z,23.43
2017-06-05T10:08:39.866Z,23.42
2017-06-05T10:09:50.968Z,23.5
2017-06-05T10:11:02.044Z,23.48
2017-06-05T10:12:12.806Z,23.48
2017-06-05T10:13:23.589Z,23.5
2017-06-05T10:14:34.356Z,23.5
2017-06-05T10:15:45.162Z,23.42
2017-06-05T10:16:56.027Z,23.54
2017-06-05T10:18:06.518Z,23.53
2017-06-05T10:19:17.710Z,23.43
2017-06-05T10:20:28.537Z,23.6
2017-06-05T10:21:39.003Z,23.48
2017-06-05T10:22:49.826Z,23.53
2017-06-05T10:24:01.038Z,23.5
2017-06-05T10:25:11.646Z,23.53
2017-06-05T10:26:22.637Z,23.53
2017-06-05T10:27:33.697Z,23.54
2017-06-05T10:28:43.693Z,23.55
2017-06-05T10:29:53.981Z,23.58
2017-06-05T10:31:04.557Z,23.55
2017-06-05T10:32:15.131Z,23.57
2017-06-05T10:33:26.083Z,23.54
2017-06-05T10:34:36.408Z,23.54
2017-06-05T10:35:47.580Z,23.58
2017-06-05T10:36:58.333Z,23.61
2017-06-05T10:38:09.451Z,23.58
2017-06-05T10:39:20.619Z,23.58
2017-06-05T10:40:31.819Z,23.58
2017-06-05T10:41:42.748Z,23.65
2017-06-05T10:42:53.586Z,23.6
2017-06-05T10:44:05.395Z,23.63
2017-06-05T10:45:16.234Z,23.63
2017-06-05T10:46:27.022Z,23.58
2017-06-05T10:47:37.806Z,23.65
2017-06-05T10:48:48.905Z,23.66
2017-06-05T10:49:59.672Z,23.63
2017-06-05T10:51:10.096Z,23.7
2017-06-05T10:52:20.888Z,23.66
2017-06-05T10:53:31.716Z,23.75
2017-06-05T10:54:42.525Z,23.65
2017-06-05T10:55:53.727Z,23.68
2017-06-05T10:57:04.556Z,23.69
2017-06-05T10:58:15.410Z,23.68
2017-06-05T10:59:25.831Z,23.61
2017-06-05T11:00:36.402Z,23.69
2017-06-05T11:01:46.435Z,23.69
2017-06-05T11:02:56.671Z,23.68
2017-06-05T11:04:07.206Z,23.58
2017-06-05T11:05:17.735Z,23.66
2017-06-05T11:06:28.282Z,23.68
2017-06-05T11:07:38.534Z,23.73
2017-06-05T11:08:49.011Z,23.7
2017-06-05T11:09:59.316Z,23.68
2017-06-05T11:11:09.266Z,23.72
2017-06-05T11:12:19.533Z,23.68
2017-06-05T11:13:29.483Z,23.7
2017-06-05T11:14:39.774Z,23.69
2017-06-05T11:15:49.722Z,23.68
2017-06-05T11:16:59.363Z,23.68
2017-06-05T11:18:09.628Z,23.75
2017-06-05T11:19:19.884Z,23.7
2017-06-05T11:20:29.542Z,23.68
2017-06-05T11:21:39.813Z,23.72
2017-06-05T11:22:49.767Z,23.69
2017-06-05T11:24:00.031Z,23.73
2017-06-05T11:25:09.709Z,23.73
2017-06-05T11:26:19.342Z,23.72
2017-06-05T11:27:28.981Z,23.69
2017-06-05T11:28:38.931Z,23.66
2017-06-05T11:29:49.195Z,23.69
2017-06-05T11:30:59.148Z,23.7
2017-06-05T11:32:09.103Z,23.69
2017-06-05T11:33:19.053Z,23.75
2017-06-05T11:34:29.321Z,23.76
2017-06-05T11:35:39.592Z,23.69
2017-06-05T11:36:49.226Z,23.69
2017-06-05T11:37:58.860Z,23.79
2017-06-05T11:39:09.123Z,23.66
2017-06-05T11:40:19.077Z,23.68
2017-06-05T11:41:29.025Z,23.65
2017-06-05T11:42:39.293Z,23.72
2017-06-05T11:43:49.245Z,23.73
2017-06-05T11:44:59.197Z,23.7
2017-06-05T11:46:08.836Z,23.72
2017-06-05T11:47:18.474Z,23.73
2017-06-05T11:48:28.737Z,23.8
2017-06-05T11:49:38.682Z,23.8
2017-06-05T11:50:48.624Z,23.83
2017-06-05T11:51:58.582Z,23.75
2017-06-05T11:53:08.851Z,23.79
2017-06-05T11:54:18.801Z,23.83
2017-06-05T11:55:28.752Z,23.76
2017-06-05T11:56:38.434Z,23.58
2017-06-05T11:57:48.383Z,23.54
2017-06-05T11:58:57.708Z,23.48
2017-06-05T12:00:07.658Z,23.5
2017-06-05T12:01:17.627Z,23.5
2017-06-05T12:02:27.586Z,23.48
2017-06-05T12:03:37.565Z,23.54
2017-06-05T12:04:47.518Z,23.57
2017-06-05T12:05:57.788Z,23.53
2017-06-05T12:07:07.736Z,23.57
2017-06-05T12:08:17.685Z,23.57
2017-06-05T12:09:27.956Z,23.54
2017-06-05T12:10:38.221Z,23.53
2017-06-05T12:11:48.487Z,23.54
2017-06-05T12:12:58.441Z,23.53
2017-06-05T12:14:08.395Z,23.54
2017-06-05T12:15:18.025Z,23.55
2017-06-05T12:16:28.293Z,23.55
2017-06-05T12:17:37.930Z,23.6
2017-06-05T12:18:47.877Z,23.6
2017-06-05T12:19:57.828Z,23.47
2017-06-05T12:21:07.790Z,23.58
2017-06-05T12:22:17.743Z,23.51
2017-06-05T12:23:28.014Z,23.51
2017-06-05T12:24:38.272Z,23.55
2017-06-05T12:25:48.221Z,23.55
2017-06-05T12:26:58.484Z,23.54
2017-06-05T12:28:08.129Z,23.54
2017-06-05T12:29:18.396Z,23.55
2017-06-05T12:30:28.343Z,23.57
2017-06-05T12:31:38.301Z,23.58
2017-06-05T12:32:47.934Z,23.53
2017-06-05T12:33:57.882Z,23.55
2017-06-05T12:35:07.827Z,23.54
2017-06-05T12:36:17.777Z,23.54
2017-06-05T12:37:28.044Z,23.51
2017-06-05T12:38:38.308Z,23.42
2017-06-05T12:39:48.577Z,23.54
2017-06-05T12:40:58.844Z,23.53
2017-06-05T12:42:09.126Z,23.65
2017-06-05T12:43:19.078Z,23.73
2017-06-05T12:44:28.717Z,23.75
2017-06-05T12:45:38.667Z,23.73
2017-06-05T12:46:48.611Z,23.76
2017-06-05T12:47:58.562Z,23.68
2017-06-05T12:49:08.828Z,23.73
2017-06-05T12:50:18.777Z,23.76
2017-06-05T12:51:29.047Z,23.78
2017-06-05T12:52:39.311Z,23.76
2017-06-05T12:53:49.577Z,23.78
2017-06-05T12:54:59.852Z,23.75
2017-06-05T12:56:10.117Z,23.72
2017-06-05T12:57:20.065Z,23.75
2017-06-05T12:58:30.327Z,23.78
2017-06-05T12:59:40.613Z,23.7
2017-06-05T13:00:50.558Z,23.83
2017-06-05T13:02:00.829Z,23.78
2017-06-05T13:03:10.783Z,23.63
2017-06-05T13:04:20.417Z,23.78
2017-06-05T13:05:30.400Z,23.83
2017-06-05T13:06:40.665Z,23.78
2017-06-05T13:07:50.617Z,23.76
2017-06-05T13:09:00.880Z,23.83
2017-06-05T13:10:10.830Z,23.76
2017-06-05T13:11:20.779Z,23.76
2017-06-05T13:12:30.417Z,23.75
2017-06-05T13:13:40.683Z,23.72
2017-06-05T13:14:50.635Z,23.79
2017-06-05T13:16:00.606Z,23.72
2017-06-05T13:17:10.876Z,23.72
2017-06-05T13:18:20.828Z,23.76
2017-06-05T13:19:31.091Z,23.76
2017-06-05T13:20:41.044Z,23.76
2017-06-05T13:21:51.301Z,23.75
2017-06-05T13:23:01.570Z,23.83
2017-06-05T13:24:11.518Z,23.75
2017-06-05T13:25:21.467Z,23.72
2017-06-05T13:26:31.420Z,23.76
2017-06-05T13:27:40.420Z,23.9
2017-06-05T13:28:50.372Z,23.79
2017-06-05T13:30:00.672Z,23.78
2017-06-05T13:31:10.323Z,23.7
2017-06-05T13:32:20.590Z,23.78
2017-06-05T13:33:30.263Z,23.78
2017-06-05T13:34:39.901Z,23.75
2017-06-05T13:35:49.848Z,23.78
2017-06-05T13:36:59.799Z,23.73
2017-06-05T13:38:10.062Z,23.75
2017-06-05T13:39:20.043Z,23.83
2017-06-05T13:40:29.996Z,23.76
2017-06-05T13:41:39.637Z,23.87
2017-06-05T13:42:49.585Z,23.72
2017-06-05T13:43:59.854Z,23.7
2017-06-05T13:45:09.836Z,23.78
2017-06-05T13:46:20.096Z,23.83
2017-06-05T13:47:30.056Z,23.73
2017-06-05T13:48:40.329Z,23.79
2017-06-05T13:49:50.629Z,23.76
2017-06-05T13:51:00.580Z,23.83
2017-06-05T13:52:10.532Z,23.68
2017-06-05T13:53:20.799Z,23.79
2017-06-05T13:54:30.753Z,23.88
2017-06-05T13:55:41.011Z,23.79
2017-06-05T13:56:50.959Z,23.84
2017-06-05T13:58:00.593Z,23.79
2017-06-05T13:59:10.541Z,23.79
2017-06-05T14:00:20.518Z,23.84
2017-06-05T14:01:30.480Z,23.75
2017-06-05T14:02:40.748Z,23.83
2017-06-05T14:03:50.388Z,23.8
2017-06-05T14:05:00.666Z,23.79
2017-06-05T14:06:10.302Z,23.8
2017-06-05T14:07:20.245Z,23.78
2017-06-05T14:08:30.200Z,23.78
2017-06-05T14:09:39.892Z,23.76
2017-06-05T14:10:49.845Z,23.79
2017-06-05T14:11:59.806Z,23.79
2017-06-05T14:13:10.076Z,23.78
2017-06-05T14:14:20.040Z,23.78
2017-06-05T14:15:30.315Z,23.73
2017-06-05T14:16:40.279Z,23.76
2017-06-05T14:17:50.238Z,23.76
2017-06-05T14:18:59.553Z,23.72
2017-06-05T14:20:09.523Z,23.73
2017-06-05T14:21:19.472Z,23.78
2017-06-05T14:22:29.430Z,23.8
2017-06-05T14:23:39.695Z,23.8
2017-06-05T14:24:49.331Z,23.8
2017-06-05T14:25:59.315Z,23.76
2017-06-05T14:27:09.579Z,23.79
2017-06-05T14:28:19.853Z,23.79
2017-06-05T14:29:29.489Z,23.83
2017-06-05T14:30:39.450Z,23.76
2017-06-05T14:31:48.774Z,23.79
2017-06-05T14:32:58.730Z,23.79
2017-06-05T14:34:08.736Z,23.84
2017-06-05T14:35:19.004Z,23.78
2017-06-05T14:36:28.964Z,23.83
2017-06-05T14:37:39.231Z,23.8
2017-06-05T14:38:49.493Z,23.8
2017-06-05T14:39:59.758Z,23.83
2017-06-05T14:41:09.400Z,23.78
2017-06-05T14:42:19.043Z,23.8
2017-06-05T14:43:28.366Z,23.8
2017-06-05T14:44:38.315Z,23.78
2017-06-05T14:45:48.581Z,23.83
2017-06-05T14:46:58.532Z,23.78
2017-06-05T14:48:08.479Z,23.78
2017-06-05T14:49:18.126Z,23.84
2017-06-05T14:50:28.429Z,23.79
2017-06-05T14:51:38.067Z,23.8
2017-06-05T14:52:48.332Z,23.78
2017-06-05T14:53:58.279Z,23.83
2017-06-05T14:55:07.918Z,23.8
2017-06-05T14:56:18.186Z,23.79
2017-06-05T14:57:28.480Z,23.75
2017-06-05T14:58:38.432Z,23.8
2017-06-05T14:59:48.691Z,23.8
2017-06-05T15:00:58.953Z,23.79
2017-06-05T15:02:08.592Z,23.83
2017-06-05T15:03:18.237Z,23.79
2017-06-05T15:04:28.201Z,23.78
2017-06-05T15:05:38.496Z,23.72
2017-06-05T15:06:48.134Z,23.8